createdAt,value
2017-12-13T00:00:02.877Z,81.89
2017-12-13T00:01:09.845Z,81.89
2017-12-13T00:02:16.836Z,81.87
2017-12-13T00:03:23.688Z,81.88
2017-12-13T00:04:30.709Z,81.91
2017-12-13T00:05:37.728Z,81.91
2017-12-13T00:06:44.803Z,81.92
2017-12-13T00:07:51.772Z,81.92
2017-12-13T00:08:58.765Z,81.90
2017-12-13T00:10:05.756Z,81.91
2017-12-13T00:11:12.728Z,81.89
2017-12-13T00:12:19.573Z,81.92
2017-12-13T00:13:26.564Z,81.93
2017-12-13T00:14:33.563Z,81.92
2017-12-13T00:15:40.516Z,81.92
2017-12-13T00:16:47.560Z,81.90
2017-12-13T00:17:54.538Z,81.90
2017-12-13T00:19:01.450Z,81.93
2017-12-13T00:20:08.364Z,81.92
2017-12-13T00:21:15.324Z,81.95
2017-12-13T00:22:22.220Z,81.92
2017-12-13T00:23:29.344Z,81.94
2017-12-13T00:24:36.293Z,81.97
2017-12-13T00:25:43.351Z,81.97
2017-12-13T00:26:50.335Z,81.97
2017-12-13T00:27:57.407Z,82.03
2017-12-13T00:29:09.528Z,81.98
2017-12-13T00:30:11.428Z,81.98
2017-12-13T00:31:18.397Z,81.99
2017-12-13T00:32:25.517Z,81.97
2017-12-13T00:33:32.477Z,81.97
2017-12-13T00:34:39.411Z,81.94
2017-12-13T00:35:46.424Z,81.97
2017-12-13T00:36:53.368Z,81.97
2017-12-13T00:38:00.476Z,82.01
2017-12-13T00:39:07.464Z,82.01
2017-12-13T00:40:14.399Z,81.99
2017-12-13T00:41:21.358Z,82.02
2017-12-13T00:42:28.384Z,81.98
2017-12-13T00:43:35.253Z,82.00
2017-12-13T00:44:42.181Z,81.95
2017-12-13T00:45:49.160Z,81.97
2017-12-13T00:46:56.091Z,82.00
2017-12-13T00:48:03.141Z,81.99
2017-12-13T00:49:10.158Z,81.97
2017-12-13T00:50:17.275Z,81.96
2017-12-13T00:51:24.200Z,81.97
2017-12-13T00:52:31.117Z,81.96
2017-12-13T00:53:38.196Z,81.96
2017-12-13T00:54:45.138Z,81.98
2017-12-13T00:55:52.076Z,81.96
2017-12-13T00:56:59.073Z,81.98
2017-12-13T00:58:06.051Z,81.97
2017-12-13T00:59:13.073Z,81.98
2017-12-13T01:00:20.061Z,81.97
2017-12-13T01:01:27.023Z,81.96
2017-12-13T01:02:34.042Z,81.93
2017-12-13T01:03:40.969Z,81.93
2017-12-13T01:04:47.923Z,81.96
2017-12-13T01:05:54.889Z,81.92
2017-12-13T01:07:01.889Z,81.95
2017-12-13T01:08:08.821Z,81.94
2017-12-13T01:09:15.764Z,81.95
2017-12-13T01:10:22.676Z,81.94
2017-12-13T01:11:29.748Z,81.98
2017-12-13T01:12:36.743Z,82.00
2017-12-13T01:13:43.686Z,81.99
2017-12-13T01:14:50.811Z,81.98
2017-12-13T01:15:57.659Z,82.00
2017-12-13T01:17:04.528Z,81.99
2017-12-13T01:18:11.513Z,81.98
2017-12-13T01:19:18.429Z,81.97
2017-12-13T01:20:25.410Z,81.93
2017-12-13T01:21:32.389Z,81.97
2017-12-13T01:22:39.250Z,81.94
2017-12-13T01:23:46.236Z,81.92
2017-12-13T01:24:53.188Z,81.94
2017-12-13T01:26:00.176Z,81.96
2017-12-13T01:27:07.100Z,81.94
2017-12-13T01:28:14.101Z,81.94
2017-12-13T01:29:21.168Z,81.97
2017-12-13T01:30:28.181Z,81.95
2017-12-13T01:31:35.164Z,81.94
2017-12-13T01:32:42.182Z,81.91
2017-12-13T01:33:49.296Z,81.92
2017-12-13T01:34:56.122Z,81.89
2017-12-13T01:36:03.098Z,81.90
2017-12-13T01:37:10.141Z,81.88
2017-12-13T01:38:17.021Z,81.87
2017-12-13T01:39:23.868Z,81.86
2017-12-13T01:40:31.042Z,81.87
2017-12-13T01:41:38.099Z,81.88
2017-12-13T01:42:45.112Z,81.85
2017-12-13T01:43:52.093Z,81.86
2017-12-13T01:44:59.040Z,81.84
2017-12-13T01:46:06.034Z,81.86
2017-12-13T01:47:13.012Z,81.88
2017-12-13T01:48:19.840Z,81.87
2017-12-13T01:49:27.022Z,81.87
2017-12-13T01:50:33.919Z,81.82
2017-12-13T01:51:40.894Z,81.84
2017-12-13T01:52:47.899Z,81.87
2017-12-13T01:53:54.929Z,81.87
2017-12-13T01:55:01.996Z,81.85
2017-12-13T01:56:08.948Z,81.83
2017-12-13T01:57:15.816Z,81.88
2017-12-13T01:58:22.790Z,81.90
2017-12-13T01:59:29.897Z,81.87
2017-12-13T02:00:36.980Z,81.90
2017-12-13T02:01:43.965Z,81.92
2017-12-13T02:02:50.868Z,81.90
2017-12-13T02:03:57.964Z,81.95
2017-12-13T02:05:04.986Z,81.94
2017-12-13T02:07:19.039Z,81.94
2017-12-13T02:08:26.008Z,81.95
2017-12-13T02:09:33.180Z,81.92
2017-12-13T02:10:40.177Z,81.94
2017-12-13T02:11:47.150Z,81.93
2017-12-13T02:12:54.138Z,81.92
2017-12-13T02:14:01.149Z,81.92
2017-12-13T02:15:08.178Z,81.95
2017-12-13T02:16:15.297Z,81.93
2017-12-13T02:17:22.223Z,81.94
2017-12-13T02:18:29.202Z,81.94
2017-12-13T02:19:36.084Z,81.96
2017-12-13T02:20:43.037Z,81.93
2017-12-13T02:21:50.013Z,81.95
2017-12-13T02:22:57.159Z,81.96
2017-12-13T02:24:04.239Z,82.01
2017-12-13T02:25:11.212Z,82.04
2017-12-13T02:26:18.177Z,82.00
2017-12-13T02:27:25.109Z,82.01
2017-12-13T02:28:31.996Z,82.05
2017-12-13T02:29:39.018Z,82.04
2017-12-13T02:30:45.930Z,82.00
2017-12-13T02:31:53.085Z,82.01
2017-12-13T02:32:59.984Z,82.01
2017-12-13T02:34:07.028Z,82.07
2017-12-13T02:35:14.049Z,82.07
2017-12-13T02:36:20.999Z,82.10
2017-12-13T02:37:27.942Z,82.09
2017-12-13T02:38:34.921Z,82.07
2017-12-13T02:39:41.938Z,82.10
2017-12-13T02:40:48.632Z,82.11
2017-12-13T02:41:55.539Z,82.14
2017-12-13T02:43:02.529Z,82.08
2017-12-13T02:44:09.491Z,82.06
2017-12-13T02:45:16.456Z,82.05
2017-12-13T02:46:23.353Z,82.06
2017-12-13T02:47:30.422Z,82.06
2017-12-13T02:48:37.504Z,82.12
2017-12-13T02:49:44.595Z,82.07
2017-12-13T02:50:51.749Z,82.05
2017-12-13T02:51:58.714Z,82.05
2017-12-13T02:53:05.647Z,82.06
2017-12-13T02:54:12.448Z,82.06
2017-12-13T02:55:19.378Z,82.06
2017-12-13T02:56:26.522Z,82.07
2017-12-13T02:57:33.587Z,82.13
2017-12-13T02:58:40.608Z,82.15
2017-12-13T02:59:47.557Z,82.14
2017-12-13T03:00:54.617Z,82.11
2017-12-13T03:02:01.513Z,82.13
2017-12-13T03:03:08.123Z,82.15
2017-12-13T03:04:15.077Z,82.12
2017-12-13T03:05:22.108Z,82.16
2017-12-13T03:06:29.047Z,82.15
2017-12-13T03:07:35.996Z,82.14
2017-12-13T03:08:42.856Z,82.10
2017-12-13T03:09:49.774Z,82.16
2017-12-13T03:10:56.765Z,82.16
2017-12-13T03:12:03.691Z,82.18
2017-12-13T03:13:10.597Z,82.16
2017-12-13T03:14:17.616Z,82.16
2017-12-13T03:15:24.522Z,82.16
2017-12-13T03:16:31.425Z,82.17
2017-12-13T03:17:38.405Z,82.16
2017-12-13T03:18:45.307Z,82.18
2017-12-13T03:19:52.304Z,82.19
2017-12-13T03:20:59.373Z,82.19
2017-12-13T03:22:06.324Z,82.20
2017-12-13T03:23:13.346Z,82.19
2017-12-13T03:24:20.288Z,82.20
2017-12-13T03:25:27.220Z,82.27
2017-12-13T03:26:34.128Z,82.27
2017-12-13T03:27:41.328Z,82.30
2017-12-13T03:28:48.258Z,82.27
2017-12-13T03:29:55.117Z,82.35
2017-12-13T03:31:02.353Z,82.33
2017-12-13T03:32:09.280Z,82.32
2017-12-13T03:33:16.256Z,82.30
2017-12-13T03:34:23.236Z,82.30
2017-12-13T03:35:30.229Z,82.27
2017-12-13T03:36:37.184Z,82.32
2017-12-13T03:37:44.224Z,82.32
2017-12-13T03:38:51.221Z,82.30
2017-12-13T03:39:58.184Z,82.32
2017-12-13T03:41:05.129Z,82.35
2017-12-13T03:42:12.033Z,82.29
2017-12-13T03:43:18.952Z,82.24
2017-12-13T03:44:25.825Z,82.28
2017-12-13T03:45:33.033Z,82.26
2017-12-13T03:46:39.908Z,82.20
2017-12-13T03:47:46.803Z,82.14
2017-12-13T03:48:53.757Z,82.16
2017-12-13T03:50:00.770Z,82.16
2017-12-13T03:51:07.768Z,82.15
2017-12-13T03:52:14.768Z,82.19
2017-12-13T03:53:21.698Z,82.14
2017-12-13T03:54:28.706Z,82.14
2017-12-13T03:55:35.676Z,82.11
2017-12-13T03:56:42.630Z,82.10
2017-12-13T03:57:49.652Z,82.09
2017-12-13T03:58:56.538Z,82.09
2017-12-13T04:00:03.580Z,82.07
2017-12-13T04:01:10.484Z,82.01
2017-12-13T04:02:17.473Z,82.03
2017-12-13T04:03:24.348Z,82.05
2017-12-13T04:04:31.320Z,82.03
2017-12-13T04:05:38.232Z,81.99
2017-12-13T04:06:45.318Z,81.96
2017-12-13T04:07:52.348Z,81.96
2017-12-13T04:08:59.217Z,81.92
2017-12-13T04:10:06.049Z,81.96
2017-12-13T04:11:12.901Z,81.89
2017-12-13T04:12:19.940Z,81.84
2017-12-13T04:13:26.868Z,81.80
2017-12-13T04:14:33.848Z,81.76
2017-12-13T04:15:40.674Z,81.76
2017-12-13T04:16:47.828Z,81.73
2017-12-13T04:17:54.673Z,81.71
2017-12-13T04:19:01.605Z,81.69
2017-12-13T04:20:08.461Z,81.70
2017-12-13T04:21:15.437Z,81.66
2017-12-13T04:22:22.493Z,81.58
2017-12-13T04:23:29.583Z,81.56
2017-12-13T04:24:36.536Z,81.50
2017-12-13T04:25:43.405Z,81.51
2017-12-13T04:26:50.536Z,81.49
2017-12-13T04:27:57.403Z,81.44
2017-12-13T04:29:04.340Z,81.37
2017-12-13T04:30:11.316Z,81.32
2017-12-13T04:31:18.284Z,81.26
2017-12-13T04:32:25.276Z,81.25
2017-12-13T04:33:32.211Z,81.18
2017-12-13T04:34:39.178Z,81.17
2017-12-13T04:35:46.165Z,81.13
2017-12-13T04:36:53.059Z,81.10
2017-12-13T04:38:00.016Z,81.08
2017-12-13T04:39:06.963Z,81.06
2017-12-13T04:40:13.908Z,81.01
2017-12-13T04:41:20.890Z,80.99
2017-12-13T04:42:27.848Z,80.96
2017-12-13T04:43:34.768Z,80.92
2017-12-13T04:44:41.726Z,80.91
2017-12-13T04:45:48.620Z,80.89
2017-12-13T04:46:55.734Z,80.87
2017-12-13T04:48:02.724Z,80.85
2017-12-13T04:49:09.671Z,80.80
2017-12-13T04:50:16.670Z,80.77
2017-12-13T04:51:23.625Z,80.75
2017-12-13T04:52:30.486Z,80.73
2017-12-13T04:53:37.440Z,80.71
2017-12-13T04:54:44.349Z,80.69
2017-12-13T04:55:51.217Z,80.70
2017-12-13T04:56:58.176Z,80.65
2017-12-13T04:58:05.333Z,80.59
2017-12-13T04:59:12.167Z,80.58
2017-12-13T05:00:19.350Z,80.56
2017-12-13T05:01:26.363Z,80.57
2017-12-13T05:02:33.321Z,80.58
2017-12-13T05:03:40.217Z,80.57
2017-12-13T05:04:47.325Z,80.52
2017-12-13T05:05:54.278Z,80.48
2017-12-13T05:07:01.237Z,80.48
2017-12-13T05:08:08.163Z,80.45
2017-12-13T05:09:15.077Z,80.42
2017-12-13T05:10:22.115Z,80.42
2017-12-13T05:11:29.113Z,80.40
2017-12-13T05:12:36.072Z,80.35
2017-12-13T05:13:43.053Z,80.33
2017-12-13T05:14:49.993Z,80.32
2017-12-13T05:15:56.973Z,80.32
2017-12-13T05:17:03.956Z,80.32
2017-12-13T05:18:10.960Z,80.27
2017-12-13T05:19:18.072Z,80.29
2017-12-13T05:20:25.120Z,80.27
2017-12-13T05:21:32.048Z,80.23
2017-12-13T05:22:39.057Z,80.24
2017-12-13T05:23:45.969Z,80.20
2017-12-13T05:24:52.945Z,80.19
2017-12-13T05:25:59.904Z,80.17
2017-12-13T05:27:06.895Z,80.11
2017-12-13T05:28:13.859Z,80.09
2017-12-13T05:29:20.789Z,80.05
2017-12-13T05:30:27.870Z,80.02
2017-12-13T05:31:34.824Z,80.07
2017-12-13T05:32:41.718Z,80.05
2017-12-13T05:33:48.718Z,80.05
2017-12-13T05:34:55.673Z,80.06
2017-12-13T05:36:02.508Z,80.04
2017-12-13T05:37:09.387Z,80.01
2017-12-13T05:38:16.218Z,80.04
2017-12-13T05:39:23.209Z,80.00
2017-12-13T05:40:30.109Z,79.99
2017-12-13T05:41:37.016Z,80.04
2017-12-13T05:42:43.942Z,80.00
2017-12-13T05:43:51.199Z,79.98
2017-12-13T05:44:58.201Z,79.94
2017-12-13T05:46:05.228Z,79.94
2017-12-13T05:47:12.130Z,79.94
2017-12-13T05:48:19.088Z,79.94
2017-12-13T05:49:26.024Z,79.92
2017-12-13T05:50:33.069Z,79.92
2017-12-13T05:51:39.606Z,79.92
2017-12-13T05:52:46.845Z,79.94
2017-12-13T05:53:53.685Z,79.88
2017-12-13T05:55:00.294Z,79.89
2017-12-13T05:56:06.968Z,79.89
2017-12-13T05:57:14.002Z,79.86
2017-12-13T05:58:21.022Z,79.87
2017-12-13T05:59:27.753Z,79.86
2017-12-13T06:00:34.886Z,79.85
2017-12-13T06:01:41.228Z,79.87
2017-12-13T06:02:48.105Z,79.85
2017-12-13T06:03:55.036Z,79.85
2017-12-13T06:05:02.036Z,79.87
2017-12-13T06:06:09.080Z,79.86
2017-12-13T06:07:16.023Z,79.88
2017-12-13T06:08:22.925Z,79.88
2017-12-13T06:09:30.632Z,79.87
2017-12-13T06:10:36.597Z,79.87
2017-12-13T06:11:43.533Z,79.88
2017-12-13T06:12:50.469Z,79.87
2017-12-13T06:13:57.352Z,79.85
2017-12-13T06:15:04.544Z,79.87
2017-12-13T06:16:11.452Z,79.90
2017-12-13T06:17:18.676Z,79.89
2017-12-13T06:18:25.857Z,79.89
2017-12-13T06:19:32.862Z,79.87
2017-12-13T06:20:39.961Z,79.90
2017-12-13T06:21:46.828Z,79.89
2017-12-13T06:22:53.927Z,79.88
2017-12-13T06:24:01.029Z,79.88
2017-12-13T06:25:07.994Z,79.90
2017-12-13T06:26:14.877Z,79.89
2017-12-13T06:27:21.845Z,79.91
2017-12-13T06:28:28.840Z,79.93
2017-12-13T06:29:35.776Z,79.97
2017-12-13T06:30:42.808Z,80.03
2017-12-13T06:31:49.688Z,80.05
2017-12-13T06:32:56.671Z,80.06
2017-12-13T06:34:03.668Z,80.09
2017-12-13T06:35:10.692Z,80.09
2017-12-13T06:36:17.786Z,80.11
2017-12-13T06:37:24.878Z,80.13
2017-12-13T06:38:31.957Z,80.14
2017-12-13T06:39:38.990Z,80.13
2017-12-13T06:40:45.966Z,80.13
2017-12-13T06:41:52.921Z,80.12
2017-12-13T06:42:59.796Z,80.13
2017-12-13T06:44:06.748Z,80.13
2017-12-13T06:45:13.760Z,80.14
2017-12-13T06:46:20.889Z,80.19
2017-12-13T06:47:27.931Z,80.20
2017-12-13T06:48:34.959Z,80.22
2017-12-13T06:49:41.977Z,80.22
2017-12-13T06:50:48.857Z,80.21
2017-12-13T06:51:55.804Z,80.21
2017-12-13T06:53:03.047Z,80.21
2017-12-13T06:54:10.127Z,80.15
2017-12-13T06:55:17.258Z,80.16
2017-12-13T06:56:24.197Z,80.19
2017-12-13T06:57:31.305Z,80.14
2017-12-13T06:58:38.414Z,80.16
2017-12-13T06:59:45.452Z,80.15
2017-12-13T07:00:52.568Z,80.17
2017-12-13T07:01:59.365Z,80.18
2017-12-13T07:03:06.548Z,80.15
2017-12-13T07:04:13.677Z,80.15
2017-12-13T07:05:20.625Z,80.15
2017-12-13T07:06:27.625Z,80.17
2017-12-13T07:07:34.671Z,80.20
2017-12-13T07:08:41.596Z,80.21
2017-12-13T07:09:48.537Z,80.21
2017-12-13T07:10:55.508Z,80.17
2017-12-13T07:12:02.472Z,80.15
2017-12-13T07:13:09.444Z,80.18
2017-12-13T07:14:16.601Z,80.20
2017-12-13T07:15:23.577Z,80.22
2017-12-13T07:16:30.434Z,80.24
2017-12-13T07:17:37.436Z,80.25
2017-12-13T07:18:44.733Z,80.23
2017-12-13T07:19:51.668Z,80.26
2017-12-13T07:20:58.640Z,80.26
2017-12-13T07:22:05.545Z,80.28
2017-12-13T07:23:12.757Z,80.27
2017-12-13T07:24:19.692Z,80.27
2017-12-13T07:25:26.817Z,80.28
2017-12-13T07:26:33.765Z,80.31
2017-12-13T07:27:40.817Z,80.34
2017-12-13T07:28:47.934Z,80.35
2017-12-13T07:29:54.912Z,80.33
2017-12-13T07:31:01.964Z,80.33
2017-12-13T07:32:09.082Z,80.32
2017-12-13T07:33:15.953Z,80.32
2017-12-13T07:34:22.923Z,80.34
2017-12-13T07:35:29.866Z,80.36
2017-12-13T07:36:36.801Z,80.39
2017-12-13T07:37:43.793Z,80.41
2017-12-13T07:38:50.772Z,80.45
2017-12-13T07:39:57.693Z,80.47
2017-12-13T07:41:04.779Z,80.48
2017-12-13T07:42:11.403Z,80.49
2017-12-13T07:43:18.352Z,80.48
2017-12-13T07:44:25.316Z,80.54
2017-12-13T07:45:32.401Z,80.57
2017-12-13T07:46:39.360Z,80.56
2017-12-13T07:47:46.345Z,80.58
2017-12-13T07:48:53.375Z,80.61
2017-12-13T07:50:00.024Z,80.62
2017-12-13T07:51:07.019Z,80.63
2017-12-13T07:52:14.048Z,80.62
2017-12-13T07:53:20.893Z,80.69
2017-12-13T07:54:27.882Z,80.70
2017-12-13T07:55:34.409Z,80.73
2017-12-13T07:56:41.464Z,80.75
2017-12-13T07:57:48.448Z,80.79
2017-12-13T07:58:55.393Z,80.76
2017-12-13T08:00:02.369Z,80.81
2017-12-13T08:01:09.369Z,80.79
2017-12-13T08:02:16.324Z,80.80
2017-12-13T08:03:23.322Z,80.79
2017-12-13T08:04:30.288Z,80.81
2017-12-13T08:05:37.180Z,80.80
2017-12-13T08:06:44.316Z,80.82
2017-12-13T08:07:51.181Z,80.87
2017-12-13T08:08:57.576Z,80.87
2017-12-13T08:10:04.704Z,80.91
2017-12-13T08:11:11.729Z,80.92
2017-12-13T08:12:18.824Z,80.91
2017-12-13T08:13:25.690Z,80.89
2017-12-13T08:14:32.794Z,80.92
2017-12-13T08:15:39.796Z,80.93
2017-12-13T08:16:46.833Z,80.95
2017-12-13T08:17:54.615Z,80.94
2017-12-13T08:19:00.518Z,80.93
2017-12-13T08:20:08.334Z,80.96
2017-12-13T08:21:14.588Z,80.97
2017-12-13T08:22:22.741Z,80.92
2017-12-13T08:23:28.650Z,80.95
2017-12-13T08:24:35.724Z,80.94
2017-12-13T08:25:42.692Z,80.93
2017-12-13T08:26:49.654Z,80.92
2017-12-13T08:27:56.653Z,80.92
2017-12-13T08:29:03.863Z,80.94
2017-12-13T08:30:10.349Z,80.95
2017-12-13T08:31:17.525Z,81.00
2017-12-13T08:32:24.449Z,80.98
2017-12-13T08:33:31.420Z,81.00
2017-12-13T08:34:38.389Z,81.00
2017-12-13T08:35:45.306Z,81.01
2017-12-13T08:36:52.298Z,80.99
2017-12-13T08:37:59.308Z,80.96
2017-12-13T08:39:06.211Z,80.93
2017-12-13T08:40:13.204Z,80.94
2017-12-13T08:41:20.163Z,80.96
2017-12-13T08:42:27.297Z,80.95
2017-12-13T08:43:33.933Z,80.95
2017-12-13T08:44:40.976Z,80.97
2017-12-13T08:45:47.933Z,81.00
2017-12-13T08:46:54.876Z,80.97
2017-12-13T08:48:03.896Z,80.94
2017-12-13T08:49:10.095Z,80.91
2017-12-13T08:50:16.228Z,80.95
2017-12-13T08:51:23.233Z,80.93
2017-12-13T08:52:30.151Z,80.94
2017-12-13T08:53:37.413Z,80.97
2017-12-13T08:54:44.220Z,80.99
2017-12-13T08:55:51.101Z,80.99
2017-12-13T08:56:58.062Z,81.03
2017-12-13T08:58:05.165Z,81.08
2017-12-13T08:59:13.369Z,81.07
2017-12-13T09:00:18.601Z,81.05
2017-12-13T09:01:25.575Z,81.06
2017-12-13T09:02:32.484Z,81.04
2017-12-13T09:03:39.497Z,80.99
2017-12-13T09:04:46.538Z,80.99
2017-12-13T09:05:53.487Z,81.01
2017-12-13T09:07:00.022Z,81.04
2017-12-13T09:08:07.005Z,80.98
2017-12-13T09:09:14.109Z,80.98
2017-12-13T09:10:21.159Z,80.99
2017-12-13T09:11:28.070Z,81.02
2017-12-13T09:12:35.230Z,81.03
2017-12-13T09:13:42.442Z,80.99
2017-12-13T09:14:49.588Z,81.05
2017-12-13T09:15:56.824Z,81.03
2017-12-13T09:17:03.479Z,81.04
2017-12-13T09:18:10.256Z,81.02
2017-12-13T09:19:17.460Z,81.05
2017-12-13T09:20:23.945Z,81.08
2017-12-13T09:21:31.086Z,81.09
2017-12-13T09:22:37.864Z,81.09
2017-12-13T09:23:44.855Z,81.08
2017-12-13T09:24:54.506Z,81.09
2017-12-13T09:26:00.068Z,81.12
2017-12-13T09:27:05.681Z,81.19
2017-12-13T09:28:12.241Z,81.30
2017-12-13T09:29:19.265Z,81.36
2017-12-13T09:30:25.688Z,81.31
2017-12-13T09:31:32.337Z,81.31
2017-12-13T09:32:39.150Z,81.33
2017-12-13T09:33:46.001Z,81.33
2017-12-13T09:34:53.094Z,81.35
2017-12-13T09:35:59.963Z,81.33
2017-12-13T09:37:06.910Z,81.37
2017-12-13T09:38:13.907Z,81.35
2017-12-13T09:39:20.882Z,81.34
2017-12-13T09:40:27.821Z,81.34
2017-12-13T09:41:34.861Z,81.37
2017-12-13T09:42:41.995Z,81.37
2017-12-13T09:43:49.150Z,81.36
2017-12-13T09:44:56.239Z,81.37
2017-12-13T09:46:02.915Z,81.34
2017-12-13T09:47:09.920Z,81.35
2017-12-13T09:48:16.913Z,81.38
2017-12-13T09:49:23.614Z,81.39
2017-12-13T09:50:30.644Z,81.38
2017-12-13T09:51:37.150Z,81.40
2017-12-13T09:52:44.104Z,81.42
2017-12-13T09:53:50.594Z,81.39
2017-12-13T09:54:57.722Z,81.39
2017-12-13T09:56:04.724Z,81.38
2017-12-13T09:57:11.816Z,81.34
2017-12-13T09:58:18.482Z,81.32
2017-12-13T09:59:25.665Z,81.29
2017-12-13T10:00:32.341Z,81.29
2017-12-13T10:01:39.387Z,81.22
2017-12-13T10:02:46.291Z,81.19
2017-12-13T10:03:53.204Z,81.17
2017-12-13T10:05:00.153Z,81.17
2017-12-13T10:06:07.218Z,81.14
2017-12-13T10:07:14.189Z,81.12
2017-12-13T10:08:21.275Z,81.12
2017-12-13T10:09:28.517Z,81.09
2017-12-13T10:10:35.073Z,81.07
2017-12-13T10:11:42.341Z,81.08
2017-12-13T10:12:49.393Z,81.05
2017-12-13T10:13:56.465Z,81.08
2017-12-13T10:15:03.537Z,81.07
2017-12-13T10:16:10.530Z,81.03
2017-12-13T10:17:17.517Z,80.99
2017-12-13T10:18:24.481Z,80.95
2017-12-13T10:19:31.464Z,80.94
2017-12-13T10:20:38.366Z,80.94
2017-12-13T10:21:45.273Z,80.93
2017-12-13T10:22:52.486Z,80.93
2017-12-13T10:23:59.137Z,80.89
2017-12-13T10:25:06.128Z,80.88
2017-12-13T10:26:13.256Z,80.88
2017-12-13T10:27:20.372Z,80.87
2017-12-13T10:28:27.231Z,80.84
2017-12-13T10:29:34.308Z,80.81
2017-12-13T10:30:41.317Z,80.84
2017-12-13T10:31:48.304Z,80.80
2017-12-13T10:32:56.574Z,80.78
2017-12-13T10:34:02.520Z,80.78
2017-12-13T10:35:09.182Z,80.79
2017-12-13T10:36:17.322Z,80.82
2017-12-13T10:37:23.320Z,80.78
2017-12-13T10:38:31.186Z,80.78
2017-12-13T10:39:37.023Z,80.77
2017-12-13T10:40:43.735Z,80.75
2017-12-13T10:41:50.807Z,80.72
2017-12-13T10:42:57.820Z,80.66
2017-12-13T10:44:04.784Z,80.69
2017-12-13T10:45:11.954Z,80.64
2017-12-13T10:46:18.941Z,80.67
2017-12-13T10:47:26.062Z,80.66
2017-12-13T10:48:33.302Z,80.65
2017-12-13T10:49:40.745Z,80.65
2017-12-13T10:50:47.283Z,80.62
2017-12-13T10:51:54.055Z,80.63
2017-12-13T10:53:00.657Z,80.62
2017-12-13T10:54:07.481Z,80.62
2017-12-13T10:55:14.461Z,80.67
2017-12-13T10:56:21.804Z,80.69
2017-12-13T10:57:28.312Z,80.68
2017-12-13T10:58:35.384Z,80.70
2017-12-13T10:59:42.024Z,80.71
2017-12-13T11:00:48.969Z,80.74
2017-12-13T11:01:55.823Z,80.77
2017-12-13T11:03:02.880Z,80.77
2017-12-13T11:04:10.049Z,80.77
2017-12-13T11:05:17.040Z,80.77
2017-12-13T11:06:24.262Z,80.76
2017-12-13T11:07:31.367Z,80.79
2017-12-13T11:08:38.682Z,80.77
2017-12-13T11:09:45.216Z,80.80
2017-12-13T11:10:52.366Z,80.78
2017-12-13T11:11:59.733Z,80.73
2017-12-13T11:13:06.375Z,80.75
2017-12-13T11:14:13.193Z,80.71
2017-12-13T11:15:19.804Z,80.68
2017-12-13T11:16:26.811Z,80.69
2017-12-13T11:17:33.841Z,80.69
2017-12-13T11:18:40.808Z,80.73
2017-12-13T11:19:47.983Z,80.74
2017-12-13T11:20:54.830Z,80.69
2017-12-13T11:22:01.807Z,80.71
2017-12-13T11:23:08.771Z,80.71
2017-12-13T11:24:16.781Z,80.71
2017-12-13T11:25:22.948Z,80.72
2017-12-13T11:26:30.040Z,80.70
2017-12-13T11:27:36.552Z,80.71
2017-12-13T11:28:43.827Z,80.75
2017-12-13T11:29:50.834Z,80.73
2017-12-13T11:30:57.932Z,80.72
2017-12-13T11:32:04.576Z,80.72
2017-12-13T11:33:11.393Z,80.72
2017-12-13T11:34:18.349Z,80.71
2017-12-13T11:35:25.158Z,80.73
2017-12-13T11:36:32.098Z,80.74
2017-12-13T11:37:39.449Z,80.74
2017-12-13T11:38:46.167Z,80.73
2017-12-13T11:39:53.274Z,80.74
2017-12-13T11:41:00.340Z,80.76
2017-12-13T11:42:06.973Z,80.77
2017-12-13T11:43:13.560Z,80.76
2017-12-13T11:44:20.775Z,80.76
2017-12-13T11:45:27.828Z,80.76
2017-12-13T11:46:34.869Z,80.77
2017-12-13T11:47:41.896Z,80.77
2017-12-13T11:48:48.955Z,80.76
2017-12-13T11:49:55.973Z,80.77
2017-12-13T11:51:03.018Z,80.77
2017-12-13T11:52:09.844Z,80.75
2017-12-13T11:53:16.658Z,80.76
2017-12-13T11:54:23.788Z,80.75
2017-12-13T11:55:30.677Z,80.74
2017-12-13T11:56:37.601Z,80.71
2017-12-13T11:57:44.218Z,80.70
2017-12-13T11:58:51.042Z,80.70
2017-12-13T11:59:58.422Z,80.69
2017-12-13T12:01:05.481Z,80.69
2017-12-13T12:02:12.559Z,80.69
2017-12-13T12:03:19.703Z,80.71
2017-12-13T12:04:26.441Z,80.69
2017-12-13T12:05:33.609Z,80.63
2017-12-13T12:06:40.629Z,80.66
2017-12-13T12:07:47.693Z,80.63
2017-12-13T12:08:54.806Z,80.62
2017-12-13T12:10:02.012Z,80.63
2017-12-13T12:11:08.485Z,80.66
2017-12-13T12:12:15.618Z,80.63
2017-12-13T12:13:22.769Z,80.62
2017-12-13T12:14:29.594Z,80.62
2017-12-13T12:15:36.290Z,80.62
2017-12-13T12:16:42.956Z,80.62
2017-12-13T12:17:50.280Z,80.60
2017-12-13T12:18:57.148Z,80.61
2017-12-13T12:20:04.319Z,80.66
2017-12-13T12:21:11.059Z,80.63
2017-12-13T12:22:18.088Z,80.63
2017-12-13T12:23:25.129Z,80.60
2017-12-13T12:24:32.153Z,80.60
2017-12-13T12:25:39.198Z,80.61
2017-12-13T12:26:46.240Z,80.63
2017-12-13T12:27:53.376Z,80.63
2017-12-13T12:29:00.262Z,80.62
2017-12-13T12:30:07.207Z,80.64
2017-12-13T12:31:14.303Z,80.61
2017-12-13T12:32:21.048Z,80.61
2017-12-13T12:33:28.257Z,80.62
2017-12-13T12:34:35.326Z,80.60
2017-12-13T12:35:42.373Z,80.61
2017-12-13T12:36:49.398Z,80.58
2017-12-13T12:37:56.449Z,80.58
2017-12-13T12:39:03.492Z,80.59
2017-12-13T12:40:10.567Z,80.58
2017-12-13T12:41:17.679Z,80.58
2017-12-13T12:42:24.777Z,80.58
2017-12-13T12:43:31.749Z,80.58
2017-12-13T12:44:38.674Z,80.58
2017-12-13T12:45:45.746Z,80.53
2017-12-13T12:46:52.600Z,80.57
2017-12-13T12:47:59.564Z,80.53
2017-12-13T12:49:06.486Z,80.50
2017-12-13T12:50:13.420Z,80.49
2017-12-13T12:51:20.517Z,80.49
2017-12-13T12:52:27.487Z,80.54
2017-12-13T12:53:34.457Z,80.54
2017-12-13T12:54:41.584Z,80.49
2017-12-13T12:55:48.707Z,80.48
2017-12-13T12:56:55.840Z,80.50
2017-12-13T12:58:02.642Z,80.49
2017-12-13T12:59:09.596Z,80.51
2017-12-13T13:00:16.616Z,80.48
2017-12-13T13:01:23.629Z,80.48
2017-12-13T13:02:30.548Z,80.49
2017-12-13T13:03:37.552Z,80.45
2017-12-13T13:04:44.733Z,80.45
2017-12-13T13:05:51.625Z,80.51
2017-12-13T13:06:58.503Z,80.49
2017-12-13T13:08:05.881Z,80.54
2017-12-13T13:09:12.563Z,80.52
2017-12-13T13:10:19.173Z,80.55
2017-12-13T13:11:26.306Z,80.53
2017-12-13T13:12:32.877Z,80.54
2017-12-13T13:13:40.237Z,80.58
2017-12-13T13:14:46.818Z,80.57
2017-12-13T13:15:53.738Z,80.57
2017-12-13T13:17:00.890Z,80.62
2017-12-13T13:18:07.726Z,80.62
2017-12-13T13:19:14.425Z,80.62
2017-12-13T13:20:21.385Z,80.68
2017-12-13T13:21:28.307Z,80.67
2017-12-13T13:22:35.319Z,80.67
2017-12-13T13:23:42.422Z,80.67
2017-12-13T13:24:49.437Z,80.71
2017-12-13T13:25:56.631Z,80.73
2017-12-13T13:27:05.190Z,80.71
2017-12-13T13:28:10.534Z,80.73
2017-12-13T13:29:17.545Z,80.75
2017-12-13T13:30:24.184Z,80.76
2017-12-13T13:31:31.138Z,80.77
2017-12-13T13:32:37.681Z,80.77
2017-12-13T13:33:45.008Z,80.80
2017-12-13T13:34:51.631Z,80.81
2017-12-13T13:35:58.921Z,80.77
2017-12-13T13:37:05.617Z,80.80
2017-12-13T13:38:12.835Z,80.80
2017-12-13T13:39:19.296Z,80.82
2017-12-13T13:40:26.508Z,80.88
2017-12-13T13:41:33.296Z,80.87
2017-12-13T13:42:40.550Z,80.89
2017-12-13T13:43:47.529Z,80.91
2017-12-13T13:44:54.654Z,80.90
2017-12-13T13:46:01.620Z,80.96
2017-12-13T13:47:08.728Z,80.94
2017-12-13T13:48:15.745Z,80.97
2017-12-13T13:49:22.949Z,80.97
2017-12-13T13:50:30.955Z,80.97
2017-12-13T13:51:37.053Z,80.97
2017-12-13T13:52:44.101Z,80.96
2017-12-13T13:53:51.173Z,80.97
2017-12-13T13:54:58.110Z,81.00
2017-12-13T13:56:04.728Z,81.05
2017-12-13T13:57:11.793Z,81.06
2017-12-13T13:58:18.831Z,81.07
2017-12-13T13:59:25.768Z,81.08
2017-12-13T14:00:32.630Z,81.05
2017-12-13T14:01:39.546Z,81.07
2017-12-13T14:02:46.339Z,81.05
2017-12-13T14:03:53.339Z,81.09
2017-12-13T14:05:00.245Z,81.10
2017-12-13T14:06:07.147Z,81.11
2017-12-13T14:07:14.379Z,81.11
2017-12-13T14:08:21.486Z,81.12
2017-12-13T14:09:28.466Z,81.13
2017-12-13T14:10:35.468Z,81.16
2017-12-13T14:11:42.329Z,81.16
2017-12-13T14:12:49.322Z,81.19
2017-12-13T14:13:56.326Z,81.19
2017-12-13T14:15:03.268Z,81.21
2017-12-13T14:16:10.198Z,81.19
2017-12-13T14:17:17.455Z,81.19
2017-12-13T14:18:24.090Z,81.24
2017-12-13T14:19:30.713Z,81.27
2017-12-13T14:20:37.706Z,81.29
2017-12-13T14:21:44.655Z,81.33
2017-12-13T14:22:52.071Z,81.35